Sweeney, South Dakota
Current Conditions -  °F | °C
As of 12:53 AM on Wednesday 22 Oct 2014 (Local Time) from KPIR Reporting Station
Clear Clear  
Wind Chill: 17°   Ceiling: Unl
Heat Index: 17°   Visibility: 10mi
Dew Point: 10°   Wind: 13mph
Humidity: 65%   Direction: 140°SE
Pressure: 29.77"   Gusts: NA
Location:  43.909°N, 100.128°W
Report Text: KPIR 220553Z AUTO 14011KT 10SM CLR 17/10 A2977 RMK AO2 SLP068 T01670100 10233 20167 402890100 58003
Loading
Personal Weather Stations






























Interactive Weather Map
Tropical Storm Tracking
New forecast layout! Learn more

10-Day Weather Forecast

Advertisements
Track Severe Weather on mobile